Time;durP1;ratioP1;P1;durP2;ratioP2;P2;SDS_P1;SDS_P2;PMS_P1;PMS_P2;Temp;Humidity;BMP_temperature;BMP_pressure;BME280_temperature;BME280_humidity;BME280_pressure;Samples;Min_cycle;Max_cycle;Signal;HPM_P1;HPM_P2
2022/11/22 00:00:55;;;;;;;9.90;4.88;;;6.50;99.90;;;;;;5089709;28;20051;-83
2022/11/22 00:03:20;;;;;;;9.87;5.20;;;6.50;99.90;;;;;;5092292;28;20032;-84
2022/11/22 00:05:46;;;;;;;13.40;5.10;;;6.60;99.90;;;;;;5094075;28;20031;-81
2022/11/22 00:08:12;;;;;;;12.15;4.30;;;6.50;99.90;;;;;;5089804;28;20016;-83
2022/11/22 00:10:38;;;;;;;13.17;5.53;;;6.60;99.90;;;;;;5091217;28;20027;-81
2022/11/22 00:13:03;;;;;;;12.07;5.37;;;6.60;99.90;;;;;;5090998;28;20028;-89
2022/11/22 00:15:29;;;;;;;17.23;4.88;;;6.60;99.90;;;;;;5091787;28;20081;-82
2022/11/22 00:17:55;;;;;;;12.07;4.87;;;6.60;99.90;;;;;;5083274;28;20074;-81
2022/11/22 00:20:20;;;;;;;15.07;5.50;;;6.60;99.90;;;;;;5087558;28;20042;-82
2022/11/22 00:22:46;;;;;;;12.60;4.80;;;6.70;99.90;;;;;;5089538;28;20028;-82
2022/11/22 00:25:12;;;;;;;8.20;5.00;;;6.60;99.90;;;;;;5085035;28;20051;-81
2022/11/22 00:27:38;;;;;;;20.93;5.67;;;6.60;99.90;;;;;;5092149;28;20102;-83
2022/11/22 00:30:05;;;;;;;11.73;4.87;;;6.60;99.90;;;;;;5094157;28;20351;-89
2022/11/22 00:32:30;;;;;;;18.25;5.97;;;6.60;99.90;;;;;;5089083;28;20345;-82
2022/11/22 00:34:56;;;;;;;12.27;4.97;;;6.60;99.90;;;;;;5083996;28;20035;-82
2022/11/22 00:37:22;;;;;;;12.70;5.87;;;6.60;99.90;;;;;;5087553;28;20433;-80
2022/11/22 00:39:47;;;;;;;16.27;5.30;;;6.60;99.90;;;;;;5091989;28;20081;-81
2022/11/22 00:42:13;;;;;;;14.73;4.47;;;6.50;99.90;;;;;;5074412;28;20074;-79
2022/11/22 00:44:38;;;;;;;12.20;5.07;;;6.60;99.90;;;;;;5090695;28;20103;-81
2022/11/22 00:47:04;;;;;;;10.20;5.20;;;6.60;99.90;;;;;;5090473;28;20069;-81
2022/11/22 00:49:30;;;;;;;16.30;5.97;;;6.60;99.90;;;;;;5090083;28;20052;-82
2022/11/22 00:51:56;;;;;;;12.30;4.85;;;6.70;99.90;;;;;;5067087;28;20123;-81
2022/11/22 00:54:21;;;;;;;18.07;5.33;;;6.60;99.90;;;;;;5088742;28;20024;-80
2022/11/22 00:56:47;;;;;;;13.73;5.80;;;6.70;99.90;;;;;;5073930;28;20036;-82
2022/11/22 00:59:12;;;;;;;11.00;5.93;;;6.60;99.90;;;;;;5089406;28;20109;-80
2022/11/22 01:01:38;;;;;;;14.60;5.60;;;6.50;99.90;;;;;;5088336;28;20069;-81
2022/11/22 01:04:04;;;;;;;11.83;5.53;;;6.50;99.90;;;;;;5091988;28;20431;-81
2022/11/22 01:06:30;;;;;;;9.43;5.27;;;6.40;99.90;;;;;;5087963;28;20024;-78
2022/11/22 01:08:55;;;;;;;14.43;5.07;;;6.30;99.90;;;;;;5090261;28;20027;-81
2022/11/22 01:11:21;;;;;;;10.27;5.23;;;6.30;99.90;;;;;;5092443;28;20028;-81
2022/11/22 01:13:47;;;;;;;11.85;5.47;;;6.30;99.90;;;;;;5092587;28;20064;-80
2022/11/22 01:16:13;;;;;;;12.80;4.90;;;6.30;99.90;;;;;;5092095;28;20331;-79
2022/11/22 01:18:39;;;;;;;11.48;5.28;;;6.20;99.90;;;;;;5089811;28;20318;-79
2022/11/22 01:21:05;;;;;;;11.00;4.75;;;6.20;99.90;;;;;;5091191;28;20047;-81
2022/11/22 01:23:32;;;;;;;11.00;4.87;;;6.20;99.90;;;;;;5093635;28;20020;-79
2022/11/22 01:25:58;;;;;;;11.57;5.00;;;6.30;99.90;;;;;;5095867;28;20292;-84
2022/11/22 01:28:24;;;;;;;12.80;4.90;;;6.20;99.90;;;;;;5095819;28;20024;-80
2022/11/22 01:30:51;;;;;;;13.47;4.77;;;6.20;99.90;;;;;;5096143;28;20063;-80
2022/11/22 01:33:17;;;;;;;;;;;6.20;99.90;;;;;;5096410;28;20058;-80
2022/11/22 01:35:42;;;;;;;13.73;5.53;;;6.20;99.90;;;;;;5095776;28;19916;-79
2022/11/22 01:38:08;;;;;;;7.20;4.67;;;6.30;99.90;;;;;;5097346;28;20035;-79
2022/11/22 01:40:34;;;;;;;14.45;5.10;;;6.20;99.90;;;;;;5097019;28;20535;-79
2022/11/22 01:43:00;;;;;;;17.53;5.07;;;6.20;99.90;;;;;;5096520;28;20028;-77
2022/11/22 01:45:29;;;;;;;10.15;4.97;;;6.30;99.90;;;;;;5095121;28;20299;-80
2022/11/22 01:47:59;;;;;;;8.50;4.63;;;6.20;99.90;;;;;;5095440;28;20024;-81
2022/11/22 01:50:26;;;;;;;10.90;4.82;;;6.20;99.90;;;;;;5091297;28;20039;-80
2022/11/22 01:52:56;;;;;;;7.93;4.85;;;6.20;99.90;;;;;;5093044;28;20114;-81
2022/11/22 01:55:21;;;;;;;15.43;5.15;;;6.10;99.90;;;;;;5096149;28;20024;-79
2022/11/22 01:57:47;;;;;;;11.73;4.97;;;6.10;99.90;;;;;;5090082;28;20114;-79
2022/11/22 02:00:16;;;;;;;14.47;5.20;;;6.10;99.90;;;;;;5094545;28;20073;-80
2022/11/22 02:02:52;;;;;;;9.55;4.38;;;6.10;99.90;;;;;;5093922;28;20020;-80
2022/11/22 02:05:21;;;;;;;19.80;4.90;;;6.00;99.90;;;;;;5086242;28;20127;-78
2022/11/22 02:07:53;;;;;;;22.15;5.20;;;6.00;99.90;;;;;;5095837;28;20326;-80
2022/11/22 02:10:21;;;;;;;12.82;4.50;;;5.90;99.90;;;;;;5093846;28;20071;-79
2022/11/22 02:12:49;;;;;;;6.70;3.88;;;5.90;99.90;;;;;;5095511;28;20024;-80
2022/11/22 02:15:15;;;;;;;9.23;4.30;;;5.90;99.90;;;;;;5091896;28;20039;-79
2022/11/22 02:17:40;;;;;;;10.10;3.90;;;5.90;99.90;;;;;;5096238;28;20035;-79
2022/11/22 02:20:07;;;;;;;7.07;3.93;;;5.90;99.90;;;;;;5093380;28;20372;-78
2022/11/22 02:22:41;;;;;;;11.30;5.28;;;5.80;99.90;;;;;;5089021;28;20031;-80
2022/11/22 02:25:25;;;;;;;13.73;4.10;;;5.90;99.90;;;;;;5093181;28;20036;-80
2022/11/22 02:27:50;;;;;;;8.93;3.33;;;5.90;99.90;;;;;;5088473;28;20123;-78
2022/11/22 02:30:17;;;;;;;9.90;4.37;;;5.90;99.90;;;;;;5093523;28;20111;-80
2022/11/22 02:32:42;;;;;;;8.25;3.35;;;5.90;99.90;;;;;;5091763;28;20058;-84
2022/11/22 02:35:20;;;;;;;13.10;4.47;;;5.80;99.90;;;;;;5090075;28;20470;-79
2022/11/22 02:37:50;;;;;;;20.52;4.47;;;5.80;99.90;;;;;;5076722;28;20060;-78
2022/11/22 02:40:16;;;;;;;10.90;3.85;;;5.80;99.90;;;;;;5089906;28;20490;-79
2022/11/22 02:42:48;;;;;;;12.63;4.32;;;5.80;99.90;;;;;;5081414;28;20036;-79
2022/11/22 02:45:13;;;;;;;14.05;3.50;;;5.80;99.90;;;;;;5076264;28;20423;-79
2022/11/22 02:47:39;;;;;;;14.30;3.80;;;5.80;99.90;;;;;;5091278;28;20025;-78
2022/11/22 02:50:05;;;;;;;15.82;3.70;;;5.80;99.90;;;;;;5093720;28;20067;-79
2022/11/22 02:52:31;;;;;;;7.07;3.67;;;5.90;99.90;;;;;;5092983;28;20035;-77
2022/11/22 02:54:57;;;;;;;17.27;4.40;;;5.90;99.90;;;;;;5094983;28;20280;-79
2022/11/22 02:57:22;;;;;;;21.67;3.97;;;5.90;99.90;;;;;;5094263;28;20032;-78
2022/11/22 02:59:48;;;;;;;8.13;3.97;;;5.90;99.90;;;;;;5094827;28;20044;-79
2022/11/22 03:02:14;;;;;;;7.87;3.40;;;5.90;99.90;;;;;;5090036;28;20063;-80
2022/11/22 03:04:39;;;;;;;15.13;3.23;;;5.90;99.90;;;;;;5089770;28;20040;-78
2022/11/22 03:07:05;;;;;;;6.73;2.43;;;5.80;99.90;;;;;;5093762;28;20248;-79
2022/11/22 03:09:31;;;;;;;13.00;3.17;;;5.80;99.90;;;;;;5093757;28;20024;-81
2022/11/22 03:11:57;;;;;;;13.83;3.60;;;5.80;99.90;;;;;;5091087;28;20035;-80
2022/11/22 03:14:23;;;;;;;13.20;2.40;;;5.80;99.90;;;;;;5093504;28;20032;-78
2022/11/22 03:16:48;;;;;;;10.00;1.90;;;5.80;99.90;;;;;;5095172;28;20438;-78
2022/11/22 03:19:14;;;;;;;9.50;2.15;;;5.80;99.90;;;;;;5090241;28;20059;-78
2022/11/22 03:21:41;;;;;;;8.37;2.93;;;5.80;99.90;;;;;;5093210;28;20035;-78
2022/11/22 03:24:08;;;;;;;11.85;2.35;;;5.70;99.90;;;;;;5093262;28;20027;-78
2022/11/22 03:26:34;;;;;;;16.05;3.13;;;5.70;99.90;;;;;;5093453;28;20032;-78
2022/11/22 03:29:00;;;;;;;11.65;2.67;;;5.70;99.90;;;;;;5094308;28;20028;-78
2022/11/22 03:31:26;;;;;;;10.87;2.87;;;5.70;99.90;;;;;;5093216;28;20079;-79
2022/11/22 03:33:52;;;;;;;13.77;2.72;;;5.60;99.90;;;;;;5092808;28;20316;-78
2022/11/22 03:36:18;;;;;;;21.83;2.33;;;5.60;99.90;;;;;;5089923;28;20033;-77
2022/11/22 03:38:43;;;;;;;15.85;2.35;;;5.60;99.90;;;;;;5095100;28;20386;-79
2022/11/22 03:41:09;;;;;;;15.73;2.72;;;5.50;99.90;;;;;;5093552;28;20373;-78
2022/11/22 03:43:35;;;;;;;8.10;2.37;;;5.50;99.90;;;;;;5091931;28;20304;-79
2022/11/22 03:46:00;;;;;;;17.80;3.10;;;5.50;99.90;;;;;;5092785;28;20331;-79
2022/11/22 03:48:26;;;;;;;9.00;2.03;;;5.50;99.90;;;;;;5093540;28;20073;-78
2022/11/22 03:50:52;;;;;;;7.23;2.30;;;5.50;99.90;;;;;;5094963;28;20042;-79
2022/11/22 03:53:17;;;;;;;13.37;1.83;;;5.50;99.90;;;;;;5091878;28;20024;-78
2022/11/22 03:55:43;;;;;;;16.43;2.40;;;5.40;99.90;;;;;;5091913;28;20074;-78
2022/11/22 03:58:09;;;;;;;10.13;2.20;;;5.40;99.90;;;;;;5093357;28;20135;-77
2022/11/22 04:00:35;;;;;;;12.38;1.85;;;5.40;99.90;;;;;;5084831;28;20046;-77
2022/11/22 04:03:01;;;;;;;9.38;1.98;;;5.30;99.90;;;;;;5092986;28;20031;-78
2022/11/22 04:05:27;;;;;;;17.57;2.53;;;5.30;99.90;;;;;;5091386;28;20048;-77
2022/11/22 04:07:55;;;;;;;12.70;3.07;;;5.30;99.90;;;;;;5091008;28;20016;-77
2022/11/22 04:10:25;;;;;;;13.93;2.25;;;5.20;99.90;;;;;;5090253;28;20311;-77
2022/11/22 04:12:51;;;;;;;12.88;2.30;;;5.20;99.90;;;;;;5091060;28;20036;-78
2022/11/22 04:15:17;;;;;;;13.57;2.30;;;5.20;99.90;;;;;;5090640;28;20027;-77
2022/11/22 04:17:44;;;;;;;13.00;2.30;;;5.20;99.90;;;;;;5092139;28;20272;-79
2022/11/22 04:23:12;;;;;;;17.75;2.13;;;5.10;99.90;;;;;;5091641;28;20080;-77
2022/11/22 04:25:45;;;;;;;10.45;1.85;;;5.10;99.90;;;;;;5091967;28;20438;-78
2022/11/22 04:28:12;;;;;;;9.38;1.33;;;5.10;99.90;;;;;;5092302;28;20020;-80
2022/11/22 04:33:22;;;;;;;13.73;1.88;;;5.10;99.90;;;;;;5089901;28;20055;-78
2022/11/22 04:35:48;;;;;;;11.57;1.73;;;5.00;99.90;;;;;;5091875;28;20063;-78
2022/11/22 04:38:15;;;;;;;15.68;2.30;;;5.00;99.90;;;;;;5090731;28;20457;-78
2022/11/22 04:40:41;;;;;;;13.18;2.63;;;5.00;99.90;;;;;;5093660;28;20070;-78
2022/11/22 04:45:53;;;;;;;14.75;1.73;;;5.00;99.90;;;;;;5092588;28;20548;-78
2022/11/22 04:48:18;;;;;;;8.83;2.00;;;4.90;99.90;;;;;;5091067;28;20028;-77
2022/11/22 04:53:40;;;;;;;4.30;1.60;;;4.90;99.90;;;;;;5034998;28;20033;-78
2022/11/22 04:56:05;;;;;;;16.45;1.63;;;4.90;99.90;;;;;;5092889;28;20105;-78
2022/11/22 04:58:31;;;;;;;19.33;2.03;;;4.90;99.90;;;;;;5088519;28;20362;-76
2022/11/22 05:00:57;;;;;;;12.93;1.87;;;4.80;99.90;;;;;;5096428;28;20032;-79
2022/11/22 05:03:22;;;;;;;12.30;2.10;;;4.80;99.90;;;;;;5095948;28;20040;-76
2022/11/22 05:05:48;;;;;;;17.00;2.13;;;4.80;99.90;;;;;;5093692;28;20027;-86
2022/11/22 05:08:14;;;;;;;8.17;1.83;;;4.80;99.90;;;;;;5095123;28;20046;-78
2022/11/22 05:10:58;;;;;;;9.00;2.77;;;4.80;99.90;;;;;;5091528;28;20066;-77
2022/11/22 05:13:30;;;;;;;8.07;1.42;;;4.80;99.90;;;;;;5089381;28;20030;-77
2022/11/22 05:15:57;;;;;;;7.32;1.95;;;4.80;99.90;;;;;;5093700;28;20032;-77
2022/11/22 05:18:24;;;;;;;;;;;4.80;99.90;;;;;;5093160;28;20213;-76
2022/11/22 05:20:49;;;;;;;;;;;4.70;99.90;;;;;;5077512;28;20422;-76
2022/11/22 05:26:01;;;;;;;11.45;2.22;;;4.70;99.90;;;;;;5092628;28;20141;-78
2022/11/22 05:28:31;;;;;;;12.85;2.38;;;4.70;99.90;;;;;;5095280;28;20050;-79
2022/11/22 05:30:58;;;;;;;12.07;2.10;;;4.70;99.90;;;;;;5095693;28;20373;-82
2022/11/22 05:33:23;;;;;;;12.38;2.03;;;4.70;99.90;;;;;;5095920;28;20052;-78
2022/11/22 05:35:49;;;;;;;10.67;2.17;;;4.70;99.90;;;;;;5095248;28;20064;-80
2022/11/22 05:38:15;;;;;;;10.80;1.80;;;4.60;99.90;;;;;;5091746;28;20474;-77
2022/11/22 05:40:41;;;;;;;12.83;1.43;;;4.60;99.90;;;;;;5091183;28;20430;-80
2022/11/22 05:43:06;;;;;;;16.07;2.43;;;4.70;99.90;;;;;;5098103;28;20364;-79
2022/11/22 05:45:33;;;;;;;11.80;1.73;;;4.70;99.90;;;;;;5089558;28;20020;-80
2022/11/22 05:47:59;;;;;;;2.85;1.17;;;4.60;99.90;;;;;;5091674;28;20028;-79
2022/11/22 05:50:24;;;;;;;10.30;3.00;;;4.60;99.90;;;;;;5094441;28;20085;-78
2022/11/22 05:52:50;;;;;;;7.57;0.77;;;4.60;99.90;;;;;;5094227;28;20032;-79
2022/11/22 05:55:16;;;;;;;10.43;1.50;;;4.70;99.90;;;;;;5092930;28;20415;-80
2022/11/22 05:57:41;;;;;;;7.55;1.10;;;4.70;99.90;;;;;;5095208;28;20111;-81
2022/11/22 06:00:08;;;;;;;5.90;2.17;;;4.80;99.90;;;;;;5095452;28;20085;-78
2022/11/22 06:02:33;;;;;;;6.82;1.40;;;4.80;99.90;;;;;;5095449;28;20072;-78
2022/11/22 06:04:59;;;;;;;17.07;2.57;;;4.80;99.90;;;;;;5092827;28;20040;-81
2022/11/22 06:07:25;;;;;;;10.57;1.87;;;4.80;99.90;;;;;;5093676;28;20059;-81
2022/11/22 06:09:50;;;;;;;8.97;1.80;;;4.80;99.90;;;;;;5092993;28;20504;-77
2022/11/22 06:12:16;;;;;;;6.43;1.77;;;4.90;99.90;;;;;;5089400;28;20370;-78
2022/11/22 06:14:43;;;;;;;4.60;2.37;;;4.80;99.90;;;;;;5087071;28;20074;-77
2022/11/22 06:17:09;;;;;;;7.53;2.25;;;4.80;99.90;;;;;;5094261;28;20023;-79
2022/11/22 06:19:34;;;;;;;8.25;3.10;;;4.80;99.90;;;;;;5087992;28;20035;-79
2022/11/22 06:22:00;;;;;;;7.27;1.67;;;4.80;99.90;;;;;;5096287;28;20032;-81
2022/11/22 06:24:26;;;;;;;10.73;2.72;;;4.90;99.90;;;;;;5095115;28;20373;-79
2022/11/22 06:26:52;;;;;;;13.20;2.70;;;4.80;99.90;;;;;;5095254;28;20028;-79
2022/11/22 06:29:17;;;;;;;10.60;3.00;;;4.90;99.90;;;;;;5093874;28;20077;-79
2022/11/22 06:31:43;;;;;;;9.93;2.60;;;4.90;99.90;;;;;;5094780;28;20028;-88
2022/11/22 06:34:11;;;;;;;5.80;2.40;;;4.90;99.90;;;;;;5093429;28;20035;-84
2022/11/22 06:36:38;;;;;;;6.88;2.70;;;5.00;99.90;;;;;;5092209;28;20028;-78
2022/11/22 06:39:04;;;;;;;6.10;2.85;;;5.00;99.90;;;;;;5093662;28;20321;-79
2022/11/22 06:41:35;;;;;;;8.82;2.65;;;5.00;99.90;;;;;;5093343;28;20032;-80
2022/11/22 06:44:07;;;;;;;5.32;3.42;;;5.00;99.90;;;;;;5092582;28;20119;-84
2022/11/22 06:46:34;;;;;;;13.82;3.40;;;5.00;99.90;;;;;;5092956;28;20032;-80
2022/11/22 06:49:00;;;;;;;8.88;2.75;;;5.00;99.90;;;;;;5092909;28;20056;-79
2022/11/22 06:51:29;;;;;;;11.57;2.97;;;4.90;99.90;;;;;;5092948;28;20032;-83
2022/11/22 06:53:56;;;;;;;13.75;3.20;;;4.90;99.90;;;;;;5091471;28;20314;-78
2022/11/22 06:56:35;;;;;;;8.48;3.33;;;4.80;99.90;;;;;;5095006;28;20024;-77
2022/11/22 06:59:02;;;;;;;15.45;4.35;;;4.80;99.90;;;;;;5083316;28;20330;-78
2022/11/22 07:01:29;;;;;;;;;;;4.80;99.90;;;;;;5093218;28;20054;-78
2022/11/22 07:03:56;;;;;;;11.90;3.97;;;4.90;99.90;;;;;;5047545;28;1295857;-79
2022/11/22 07:06:31;;;;;;;48.95;23.30;;;4.90;99.90;;;;;;5093452;28;20088;-79
2022/11/22 07:08:57;;;;;;;45.38;21.58;;;4.90;99.90;;;;;;5092973;28;20050;-78
2022/11/22 07:11:25;;;;;;;27.80;15.48;;;4.90;99.90;;;;;;5091504;28;20020;-77
2022/11/22 07:13:51;;;;;;;19.00;13.35;;;5.00;99.90;;;;;;5089888;28;20036;-85
2022/11/22 07:16:19;;;;;;;19.77;7.90;;;5.00;99.90;;;;;;5095445;28;20020;-79
2022/11/22 07:18:45;;;;;;;16.27;7.38;;;5.00;99.90;;;;;;5094695;28;20273;-83
2022/11/22 07:21:20;;;;;;;23.15;10.80;;;5.00;99.90;;;;;;5089848;28;20052;-79
2022/11/22 07:23:49;;;;;;;15.77;7.90;;;5.00;99.90;;;;;;5091645;28;20402;-83
2022/11/22 07:26:16;;;;;;;43.47;18.58;;;5.00;99.90;;;;;;5091418;28;20061;-82
2022/11/22 07:28:42;;;;;;;23.23;13.13;;;4.90;99.90;;;;;;5091798;28;20042;-81
2022/11/22 07:31:09;;;;;;;15.07;11.23;;;4.90;99.90;;;;;;5086812;28;20036;-81
2022/11/22 07:33:35;;;;;;;26.40;16.92;;;4.80;99.90;;;;;;5085900;28;20032;-89
2022/11/22 07:36:05;;;;;;;17.02;9.40;;;4.90;99.90;;;;;;5089454;28;20032;-78
2022/11/22 07:38:31;;;;;;;25.63;14.95;;;4.90;99.90;;;;;;5084730;28;20610;-80
2022/11/22 07:40:56;;;;;;;27.85;17.70;;;4.90;99.90;;;;;;5092708;28;20035;-80
2022/11/22 07:43:22;;;;;;;12.63;7.53;;;4.90;99.90;;;;;;5091580;28;20323;-76
2022/11/22 07:45:48;;;;;;;11.93;4.60;;;5.00;99.90;;;;;;5085293;28;20032;-78
2022/11/22 07:48:13;;;;;;;16.23;6.63;;;5.00;99.90;;;;;;5083191;28;20031;-81
2022/11/22 07:50:40;;;;;;;10.20;3.37;;;5.10;99.90;;;;;;5088901;28;20031;-81
2022/11/22 07:53:06;;;;;;;;;;;5.10;99.90;;;;;;5090962;28;20040;-78
2022/11/22 07:55:32;;;;;;;11.48;6.93;;;5.00;99.90;;;;;;5090469;28;20249;-81
2022/11/22 07:57:59;;;;;;;12.30;6.03;;;5.10;99.90;;;;;;5083363;28;20131;-77
2022/11/22 08:00:25;;;;;;;19.52;11.52;;;5.10;99.90;;;;;;5088196;28;20028;-86
2022/11/22 08:02:51;;;;;;;16.77;10.32;;;5.10;99.90;;;;;;5089804;28;20418;-78
2022/11/22 08:05:18;;;;;;;12.27;4.03;;;5.20;99.90;;;;;;5090224;28;20481;-79
2022/11/22 08:07:51;;;;;;;10.95;5.13;;;5.20;99.90;;;;;;5082555;28;20131;-87
2022/11/22 08:10:17;;;;;;;16.67;4.05;;;5.20;99.90;;;;;;5086756;28;20036;-80
2022/11/22 08:12:43;;;;;;;9.63;3.55;;;5.20;99.90;;;;;;5088074;28;20036;-84
2022/11/22 08:15:11;;;;;;;10.07;3.63;;;5.20;99.90;;;;;;5089742;28;20028;-86
2022/11/22 08:17:37;;;;;;;9.02;3.28;;;5.30;99.90;;;;;;5075725;28;20030;-84
2022/11/22 08:20:04;;;;;;;16.90;4.07;;;5.30;99.90;;;;;;5086925;28;20024;-78
2022/11/22 08:22:30;;;;;;;5.40;2.92;;;5.30;99.90;;;;;;5089977;28;20031;-80
2022/11/22 08:24:56;;;;;;;9.00;3.57;;;5.30;99.90;;;;;;5087156;28;20330;-80
2022/11/22 08:27:22;;;;;;;11.80;3.90;;;5.40;99.90;;;;;;5092758;28;20017;-81
2022/11/22 08:29:47;;;;;;;10.43;3.58;;;5.40;99.90;;;;;;5091418;28;20093;-80
2022/11/22 08:32:13;;;;;;;15.17;3.47;;;5.40;99.90;;;;;;5091943;28;20032;-83
2022/11/22 08:34:39;;;;;;;8.82;3.35;;;5.40;99.90;;;;;;5088802;28;20114;-78
2022/11/22 08:37:04;;;;;;;14.40;3.47;;;5.50;99.90;;;;;;5096086;28;20038;-84
2022/11/22 08:39:31;;;;;;;9.50;3.20;;;5.40;99.90;;;;;;5091448;28;20117;-82
2022/11/22 08:41:56;;;;;;;13.30;7.28;;;5.40;99.90;;;;;;5093225;28;20024;-81
2022/11/22 08:44:22;;;;;;;10.03;3.00;;;5.40;99.90;;;;;;5093118;28;20031;-84
2022/11/22 08:46:48;;;;;;;8.50;4.43;;;5.50;99.90;;;;;;5093434;28;20024;-83
2022/11/22 08:49:13;;;;;;;8.33;4.33;;;5.50;99.90;;;;;;5090800;28;20415;-81
2022/11/22 08:51:43;;;;;;;9.63;5.83;;;5.50;99.90;;;;;;5087844;28;20050;-78
2022/11/22 08:54:11;;;;;;;13.85;5.47;;;5.50;99.90;;;;;;5089038;28;20110;-88
2022/11/22 08:56:37;;;;;;;9.25;4.53;;;5.50;99.90;;;;;;5089726;28;20031;-78
2022/11/22 08:59:02;;;;;;;8.97;2.27;;;5.60;99.90;;;;;;5087777;28;20032;-81
2022/11/22 09:01:28;;;;;;;9.17;4.10;;;5.60;99.90;;;;;;5090088;28;20020;-78
2022/11/22 09:03:54;;;;;;;6.38;2.58;;;5.70;99.90;;;;;;5090554;28;20385;-81
2022/11/22 09:06:20;;;;;;;4.63;2.27;;;5.60;99.90;;;;;;5089812;28;20031;-80
2022/11/22 09:08:46;;;;;;;12.93;2.22;;;5.60;99.90;;;;;;5089368;28;20024;-78
2022/11/22 09:11:18;;;;;;;20.65;10.75;;;5.60;99.90;;;;;;5088830;28;20060;-78
2022/11/22 09:13:44;;;;;;;43.45;19.10;;;5.60;99.90;;;;;;5092992;28;20052;-79
2022/11/22 09:16:17;;;;;;;10.95;5.85;;;5.70;99.90;;;;;;5086163;28;20081;-81
2022/11/22 09:18:43;;;;;;;14.20;6.55;;;5.70;99.90;;;;;;5081063;28;20511;-80
2022/11/22 09:21:14;;;;;;;11.98;8.93;;;5.70;99.90;;;;;;5089077;28;20020;-79
2022/11/22 09:23:44;;;;;;;15.32;5.00;;;5.70;99.90;;;;;;5084119;28;20045;-79
2022/11/22 09:26:15;;;;;;;10.82;5.03;;;5.70;99.90;;;;;;5089365;28;20024;-81
2022/11/22 09:28:40;;;;;;;13.02;5.47;;;5.70;99.90;;;;;;5082269;28;20115;-81
2022/11/22 09:31:12;;;;;;;10.77;3.23;;;5.80;99.90;;;;;;5084411;28;20111;-79
2022/11/22 09:33:40;;;;;;;7.32;3.80;;;5.80;99.90;;;;;;5084280;28;20039;-78
2022/11/22 09:36:08;;;;;;;6.78;4.60;;;5.80;99.90;;;;;;5088508;28;20071;-79
2022/11/22 09:38:35;;;;;;;10.02;3.35;;;5.90;99.90;;;;;;5090641;28;20165;-79
2022/11/22 09:41:09;;;;;;;6.18;3.58;;;5.90;99.90;;;;;;5090691;28;20036;-82
2022/11/22 09:43:53;;;;;;;34.47;16.95;;;5.90;99.90;;;;;;5092203;28;20136;-79
2022/11/22 09:46:39;;;;;;;7.97;4.05;;;5.90;99.90;;;;;;5085583;28;20021;-80
2022/11/22 09:49:19;;;;;;;5.03;2.75;;;5.90;99.90;;;;;;5093111;28;20028;-78
2022/11/22 09:52:06;;;;;;;9.63;4.50;;;6.00;99.90;;;;;;5095552;28;20032;-80
2022/11/22 09:55:05;;;;;;;12.75;6.55;;;6.00;99.90;;;;;;5087502;28;20365;-80
2022/11/22 09:57:43;;;;;;;11.68;6.97;;;6.20;99.90;;;;;;5095820;28;20418;-77
2022/11/22 10:00:26;;;;;;;9.98;4.25;;;6.30;99.90;;;;;;5096937;28;20032;-82
2022/11/22 10:03:04;;;;;;;5.05;2.58;;;6.40;99.90;;;;;;5089969;28;20020;-78
2022/11/22 10:05:58;;;;;;;11.50;3.78;;;6.40;99.90;;;;;;5090518;28;20040;-82
2022/11/22 10:09:00;;;;;;;7.10;4.60;;;6.40;99.90;;;;;;5094187;28;20474;-76
2022/11/22 10:12:02;;;;;;;7.70;5.20;;;6.50;99.90;;;;;;5094950;28;20031;-80
2022/11/22 10:14:37;;;;;;;10.02;5.57;;;6.50;99.90;;;;;;5092812;28;20036;-82
2022/11/22 10:17:39;;;;;;;11.10;4.18;;;6.50;99.90;;;;;;5092275;28;20028;-77
2022/11/22 10:20:15;;;;;;;6.53;2.78;;;6.40;99.90;;;;;;5081420;28;20095;-81
2022/11/22 10:22:41;;;;;;;5.10;3.27;;;6.50;99.90;;;;;;5090683;28;20020;-81
2022/11/22 10:25:18;;;;;;;6.93;2.65;;;6.40;99.90;;;;;;5090128;28;20095;-79
2022/11/22 10:27:51;;;;;;;8.00;3.45;;;6.50;99.90;;;;;;5088759;28;20135;-78
2022/11/22 10:30:20;;;;;;;6.90;3.13;;;6.40;99.90;;;;;;5096302;28;20283;-83
2022/11/22 10:33:06;;;;;;;10.48;3.38;;;6.40;99.90;;;;;;5094604;28;20028;-80
2022/11/22 10:35:48;;;;;;;10.02;2.55;;;6.50;99.90;;;;;;5093808;28;20030;-78
2022/11/22 10:38:33;;;;;;;7.82;2.90;;;6.40;99.90;;;;;;5089276;28;20028;-82
2022/11/22 10:41:13;;;;;;;8.57;2.05;;;6.40;99.90;;;;;;5091083;28;20024;-78
2022/11/22 10:43:49;;;;;;;47.28;26.50;;;6.40;99.90;;;;;;5094479;28;20551;-81
2022/11/22 10:46:41;;;;;;;9.02;6.45;;;6.40;99.90;;;;;;5087969;28;20028;-80
2022/11/22 10:49:16;;;;;;;7.50;3.67;;;6.40;99.90;;;;;;5094305;28;20037;-79
2022/11/22 10:51:54;;;;;;;5.55;3.30;;;6.40;99.90;;;;;;5092990;28;20027;-87
2022/11/22 10:54:55;;;;;;;5.75;4.68;;;6.40;99.90;;;;;;5092990;28;20040;-79
2022/11/22 10:57:42;;;;;;;16.33;5.40;;;6.40;99.90;;;;;;5094478;28;20327;-82
2022/11/22 11:00:24;;;;;;;7.80;5.40;;;6.50;99.90;;;;;;5087346;28;20023;-78
2022/11/22 11:02:50;;;;;;;8.88;5.18;;;6.50;99.90;;;;;;5091774;28;20031;-81
2022/11/22 11:05:24;;;;;;;15.33;7.03;;;6.40;99.90;;;;;;5090189;28;20048;-78
2022/11/22 11:07:52;;;;;;;9.43;5.38;;;6.50;99.90;;;;;;5088936;28;20103;-78
2022/11/22 11:10:23;;;;;;;13.10;5.00;;;6.50;99.90;;;;;;5092543;28;20032;-79
2022/11/22 11:13:01;;;;;;;13.52;3.03;;;6.50;99.90;;;;;;5082335;28;20028;-85
2022/11/22 11:15:49;;;;;;;7.28;3.85;;;6.50;99.90;;;;;;5089318;28;20028;-79
2022/11/22 11:18:34;;;;;;;18.08;6.93;;;6.50;99.90;;;;;;5092443;28;20024;-82
2022/11/22 11:21:01;;;;;;;13.18;4.10;;;6.50;99.90;;;;;;5085354;28;20647;-76
2022/11/22 11:23:27;;;;;;;;;;;6.50;99.90;;;;;;5088132;28;20111;-77
2022/11/22 11:25:54;;;;;;;23.90;8.25;;;6.50;99.90;;;;;;5088313;28;19907;-79
2022/11/22 11:28:29;;;;;;;11.77;4.57;;;6.50;99.90;;;;;;5093445;28;20486;-76
2022/11/22 11:31:00;;;;;;;10.73;3.80;;;6.50;99.90;;;;;;5094108;28;20036;-80
2022/11/22 11:33:33;;;;;;;20.42;6.85;;;6.50;99.90;;;;;;5088798;28;20028;-76
2022/11/22 11:36:05;;;;;;;7.22;3.42;;;6.50;99.90;;;;;;5087515;28;20038;-82
2022/11/22 11:38:37;;;;;;;18.27;8.40;;;6.50;99.90;;;;;;5090263;28;20017;-84
2022/11/22 11:41:28;;;;;;;35.25;15.93;;;6.50;99.90;;;;;;5087318;28;20038;-76
2022/11/22 11:43:58;;;;;;;172.93;50.53;;;6.60;99.90;;;;;;5088462;28;20385;-77
2022/11/22 11:46:43;;;;;;;44.50;17.92;;;6.60;99.90;;;;;;5096463;28;20115;-78
2022/11/22 11:49:15;;;;;;;22.70;9.00;;;6.70;99.90;;;;;;5093473;28;20081;-79
2022/11/22 11:52:09;;;;;;;20.50;7.85;;;6.80;99.90;;;;;;5092103;28;20058;-78
2022/11/22 11:54:44;;;;;;;23.52;12.52;;;6.80;99.90;;;;;;5088731;28;20151;-77
2022/11/22 11:57:26;;;;;;;24.42;11.50;;;6.80;99.90;;;;;;5091400;28;20111;-81
2022/11/22 11:59:55;;;;;;;11.40;6.53;;;6.70;99.90;;;;;;5094346;28;20028;-77
2022/11/22 12:02:40;;;;;;;7.55;4.45;;;6.80;99.90;;;;;;5091024;28;20113;-78
2022/11/22 12:05:14;;;;;;;10.65;3.88;;;6.80;99.90;;;;;;5090378;28;20048;-81
2022/11/22 12:07:46;;;;;;;13.00;5.82;;;6.80;99.90;;;;;;5086387;28;20387;-81
2022/11/22 12:10:29;;;;;;;6.80;3.03;;;6.80;99.90;;;;;;5089001;28;20076;-77
2022/11/22 12:13:37;;;;;;;11.27;4.47;;;6.80;99.90;;;;;;5088559;28;20028;-79
2022/11/22 12:16:24;;;;;;;11.57;6.43;;;6.90;99.90;;;;;;5048504;28;20029;-80
2022/11/22 12:19:30;;;;;;;6.53;3.03;;;7.00;99.90;;;;;;5050219;28;20324;-78
2022/11/22 12:25:26;;;;;;;8.35;5.28;;;7.10;99.90;;;;;;5030868;28;20032;-79
2022/11/22 12:27:52;;;;;;;9.85;4.15;;;7.10;99.90;;;;;;5047365;28;20029;-77
2022/11/22 12:30:18;;;;;;;6.90;4.40;;;7.10;99.90;;;;;;5030393;28;20033;-81
2022/11/22 12:33:05;;;;;;;9.60;3.43;;;7.10;99.90;;;;;;5032391;28;20033;-79
2022/11/22 12:35:42;;;;;;;10.95;6.63;;;7.10;99.90;;;;;;5047939;28;20120;-82
2022/11/22 12:38:17;;;;;;;13.50;5.40;;;7.10;99.90;;;;;;5049262;28;20056;-79
2022/11/22 12:40:47;;;;;;;16.38;6.90;;;7.10;99.90;;;;;;5046466;28;20041;-80
2022/11/22 12:43:25;;;;;;;16.10;4.60;;;7.20;99.90;;;;;;5028697;28;20116;-81
2022/11/22 12:45:55;;;;;;;15.35;4.60;;;7.30;99.90;;;;;;5045519;28;20098;-80
2022/11/22 12:48:45;;;;;;;4.13;2.33;;;7.40;99.90;;;;;;5046962;28;20335;-80
2022/11/22 12:51:25;;;;;;;6.10;1.35;;;7.40;99.90;;;;;;5100717;28;20101;-79
2022/11/22 12:53:54;;;;;;;1.98;1.67;;;7.40;99.90;;;;;;5103684;28;20027;-81
2022/11/22 12:56:28;;;;;;;4.03;1.50;;;7.50;99.90;;;;;;5105181;28;20139;-79
2022/11/22 12:59:09;;;;;;;4.22;1.30;;;7.50;99.90;;;;;;5103125;28;20039;-77
2022/11/22 13:01:40;;;;;;;4.47;1.23;;;7.50;99.90;;;;;;5102803;28;20104;-84
2022/11/22 13:04:09;;;;;;;3.83;1.23;;;7.50;99.90;;;;;;5105929;28;20040;-80
2022/11/22 13:06:47;;;;;;;3.03;1.10;;;7.50;99.90;;;;;;5107468;28;20596;-77
2022/11/22 13:09:18;;;;;;;3.85;1.42;;;7.50;99.90;;;;;;5099366;28;20032;-81
2022/11/22 13:12:03;;;;;;;9.52;4.30;;;7.50;99.90;;;;;;5103048;28;20494;-75
2022/11/22 13:14:42;;;;;;;10.57;5.32;;;7.50;99.90;;;;;;5101955;28;20471;-81
2022/11/22 13:17:09;;;;;;;28.33;12.45;;;7.50;99.90;;;;;;5101462;28;20110;-78
2022/11/22 13:20:14;;;;;;;20.98;8.40;;;7.50;99.90;;;;;;5105421;28;20032;-76
2022/11/22 13:23:11;;;;;;;22.20;8.25;;;7.50;99.90;;;;;;5110105;28;20044;-78